sensor_id;sensor_type;location;lat;lon;timestamp;P1;durP1;ratioP1;P2;durP2;ratioP2
21326;SDS011;10822;51.532;6.770;2023-04-25T00:00:25;8.57;;;3.30;;
21326;SDS011;10822;51.532;6.770;2023-04-25T00:02:51;8.18;;;3.40;;
21326;SDS011;10822;51.532;6.770;2023-04-25T00:05:17;9.18;;;3.50;;
21326;SDS011;10822;51.532;6.770;2023-04-25T00:07:44;9.50;;;3.28;;
21326;SDS011;10822;51.532;6.770;2023-04-25T00:10:11;7.68;;;3.40;;
21326;SDS011;10822;51.532;6.770;2023-04-25T00:12:37;9.15;;;3.95;;
21326;SDS011;10822;51.532;6.770;2023-04-25T00:15:04;7.03;;;3.33;;
21326;SDS011;10822;51.532;6.770;2023-04-25T00:17:30;10.88;;;4.10;;
21326;SDS011;10822;51.532;6.770;2023-04-25T00:19:56;11.57;;;3.47;;
21326;SDS011;10822;51.532;6.770;2023-04-25T00:22:23;6.85;;;3.40;;
21326;SDS011;10822;51.532;6.770;2023-04-25T00:24:49;6.63;;;3.08;;
21326;SDS011;10822;51.532;6.770;2023-04-25T00:27:15;9.70;;;3.95;;
21326;SDS011;10822;51.532;6.770;2023-04-25T00:29:41;8.68;;;3.58;;
21326;SDS011;10822;51.532;6.770;2023-04-25T00:32:07;9.50;;;3.42;;
21326;SDS011;10822;51.532;6.770;2023-04-25T00:34:33;14.10;;;4.00;;
21326;SDS011;10822;51.532;6.770;2023-04-25T00:36:59;10.05;;;3.78;;
21326;SDS011;10822;51.532;6.770;2023-04-25T00:39:27;7.65;;;3.75;;
21326;SDS011;10822;51.532;6.770;2023-04-25T00:41:53;7.47;;;3.45;;
21326;SDS011;10822;51.532;6.770;2023-04-25T00:44:20;8.57;;;3.58;;
21326;SDS011;10822;51.532;6.770;2023-04-25T00:46:47;7.50;;;3.30;;
21326;SDS011;10822;51.532;6.770;2023-04-25T00:49:14;9.77;;;3.92;;
21326;SDS011;10822;51.532;6.770;2023-04-25T00:51:41;9.82;;;4.20;;
21326;SDS011;10822;51.532;6.770;2023-04-25T00:54:08;8.95;;;3.92;;
21326;SDS011;10822;51.532;6.770;2023-04-25T00:56:35;10.32;;;3.40;;
21326;SDS011;10822;51.532;6.770;2023-04-25T00:59:01;13.90;;;4.50;;
21326;SDS011;10822;51.532;6.770;2023-04-25T01:01:27;8.75;;;3.83;;
21326;SDS011;10822;51.532;6.770;2023-04-25T01:03:53;9.95;;;3.90;;
21326;SDS011;10822;51.532;6.770;2023-04-25T01:06:19;7.55;;;3.58;;
21326;SDS011;10822;51.532;6.770;2023-04-25T01:08:45;8.95;;;4.07;;
21326;SDS011;10822;51.532;6.770;2023-04-25T01:11:11;8.88;;;3.88;;
21326;SDS011;10822;51.532;6.770;2023-04-25T01:13:37;9.82;;;4.22;;
21326;SDS011;10822;51.532;6.770;2023-04-25T01:16:03;10.10;;;4.43;;
21326;SDS011;10822;51.532;6.770;2023-04-25T01:18:29;7.55;;;3.72;;
21326;SDS011;10822;51.532;6.770;2023-04-25T01:20:55;8.15;;;3.97;;
21326;SDS011;10822;51.532;6.770;2023-04-25T01:23:23;8.45;;;3.60;;
21326;SDS011;10822;51.532;6.770;2023-04-25T01:25:49;9.32;;;4.13;;
21326;SDS011;10822;51.532;6.770;2023-04-25T01:28:16;7.78;;;3.53;;
21326;SDS011;10822;51.532;6.770;2023-04-25T01:30:42;8.82;;;3.53;;
21326;SDS011;10822;51.532;6.770;2023-04-25T01:33:08;8.25;;;4.05;;
21326;SDS011;10822;51.532;6.770;2023-04-25T01:35:34;11.38;;;4.13;;
21326;SDS011;10822;51.532;6.770;2023-04-25T01:38:00;10.02;;;4.00;;
21326;SDS011;10822;51.532;6.770;2023-04-25T01:40:26;9.82;;;3.72;;
21326;SDS011;10822;51.532;6.770;2023-04-25T01:42:53;8.63;;;3.72;;
21326;SDS011;10822;51.532;6.770;2023-04-25T01:45:19;8.15;;;3.80;;
21326;SDS011;10822;51.532;6.770;2023-04-25T01:47:45;10.25;;;4.63;;
21326;SDS011;10822;51.532;6.770;2023-04-25T01:50:16;10.80;;;4.28;;
21326;SDS011;10822;51.532;6.770;2023-04-25T01:52:42;7.82;;;3.40;;
21326;SDS011;10822;51.532;6.770;2023-04-25T01:55:08;9.63;;;3.90;;
21326;SDS011;10822;51.532;6.770;2023-04-25T01:57:34;9.25;;;3.70;;
21326;SDS011;10822;51.532;6.770;2023-04-25T02:00:03;12.82;;;4.25;;
21326;SDS011;10822;51.532;6.770;2023-04-25T02:02:29;10.02;;;4.30;;
21326;SDS011;10822;51.532;6.770;2023-04-25T02:04:55;12.32;;;4.13;;
21326;SDS011;10822;51.532;6.770;2023-04-25T02:07:21;11.27;;;4.53;;
21326;SDS011;10822;51.532;6.770;2023-04-25T02:09:47;7.22;;;3.58;;
21326;SDS011;10822;51.532;6.770;2023-04-25T02:12:13;6.38;;;3.90;;
21326;SDS011;10822;51.532;6.770;2023-04-25T02:14:39;11.07;;;3.90;;
21326;SDS011;10822;51.532;6.770;2023-04-25T02:17:05;10.80;;;4.10;;
21326;SDS011;10822;51.532;6.770;2023-04-25T02:19:31;11.57;;;3.92;;
21326;SDS011;10822;51.532;6.770;2023-04-25T02:21:57;8.05;;;3.85;;
21326;SDS011;10822;51.532;6.770;2023-04-25T02:24:23;9.18;;;4.00;;
21326;SDS011;10822;51.532;6.770;2023-04-25T02:26:49;7.95;;;4.03;;
21326;SDS011;10822;51.532;6.770;2023-04-25T02:29:16;10.63;;;4.15;;
21326;SDS011;10822;51.532;6.770;2023-04-25T02:31:42;7.28;;;3.60;;
21326;SDS011;10822;51.532;6.770;2023-04-25T02:34:08;12.85;;;4.28;;
21326;SDS011;10822;51.532;6.770;2023-04-25T02:36:34;7.88;;;3.50;;
21326;SDS011;10822;51.532;6.770;2023-04-25T02:39:00;6.93;;;3.40;;
21326;SDS011;10822;51.532;6.770;2023-04-25T02:41:27;6.30;;;3.47;;
21326;SDS011;10822;51.532;6.770;2023-04-25T02:43:53;10.25;;;3.85;;
21326;SDS011;10822;51.532;6.770;2023-04-25T02:46:19;7.15;;;4.05;;
21326;SDS011;10822;51.532;6.770;2023-04-25T02:48:45;8.93;;;4.00;;
21326;SDS011;10822;51.532;6.770;2023-04-25T02:51:11;10.48;;;4.35;;
21326;SDS011;10822;51.532;6.770;2023-04-25T02:53:38;12.27;;;4.90;;
21326;SDS011;10822;51.532;6.770;2023-04-25T02:56:04;7.97;;;3.97;;
21326;SDS011;10822;51.532;6.770;2023-04-25T02:58:30;10.13;;;4.15;;
21326;SDS011;10822;51.532;6.770;2023-04-25T03:00:56;14.95;;;4.90;;
21326;SDS011;10822;51.532;6.770;2023-04-25T03:03:22;9.52;;;4.07;;
21326;SDS011;10822;51.532;6.770;2023-04-25T03:05:51;10.15;;;3.97;;
21326;SDS011;10822;51.532;6.770;2023-04-25T03:08:17;11.43;;;4.40;;
21326;SDS011;10822;51.532;6.770;2023-04-25T03:10:43;7.05;;;3.80;;
21326;SDS011;10822;51.532;6.770;2023-04-25T03:13:09;11.02;;;3.95;;
21326;SDS011;10822;51.532;6.770;2023-04-25T03:15:36;10.93;;;4.20;;
21326;SDS011;10822;51.532;6.770;2023-04-25T03:18:02;9.27;;;3.58;;
21326;SDS011;10822;51.532;6.770;2023-04-25T03:20:28;8.50;;;3.95;;
21326;SDS011;10822;51.532;6.770;2023-04-25T03:22:54;11.85;;;4.13;;
21326;SDS011;10822;51.532;6.770;2023-04-25T03:25:20;10.35;;;3.80;;
21326;SDS011;10822;51.532;6.770;2023-04-25T03:27:46;10.98;;;4.13;;
21326;SDS011;10822;51.532;6.770;2023-04-25T03:30:12;8.55;;;4.05;;
21326;SDS011;10822;51.532;6.770;2023-04-25T03:32:38;13.73;;;4.30;;
21326;SDS011;10822;51.532;6.770;2023-04-25T03:35:04;13.15;;;4.43;;
21326;SDS011;10822;51.532;6.770;2023-04-25T03:37:30;10.13;;;4.43;;
21326;SDS011;10822;51.532;6.770;2023-04-25T03:39:56;11.00;;;4.18;;
21326;SDS011;10822;51.532;6.770;2023-04-25T03:42:22;13.10;;;4.70;;
21326;SDS011;10822;51.532;6.770;2023-04-25T03:44:49;13.43;;;4.32;;
21326;SDS011;10822;51.532;6.770;2023-04-25T03:47:15;11.35;;;4.55;;
21326;SDS011;10822;51.532;6.770;2023-04-25T03:49:41;12.98;;;4.40;;
21326;SDS011;10822;51.532;6.770;2023-04-25T03:52:07;12.07;;;5.15;;
21326;SDS011;10822;51.532;6.770;2023-04-25T03:54:33;11.05;;;4.45;;
21326;SDS011;10822;51.532;6.770;2023-04-25T03:56:59;12.10;;;4.32;;
21326;SDS011;10822;51.532;6.770;2023-04-25T03:59:25;12.68;;;4.40;;
21326;SDS011;10822;51.532;6.770;2023-04-25T04:01:51;13.68;;;4.88;;
21326;SDS011;10822;51.532;6.770;2023-04-25T04:04:17;11.00;;;4.38;;
21326;SDS011;10822;51.532;6.770;2023-04-25T04:06:43;12.55;;;5.18;;
21326;SDS011;10822;51.532;6.770;2023-04-25T04:09:10;13.18;;;4.47;;
21326;SDS011;10822;51.532;6.770;2023-04-25T04:11:37;16.45;;;5.43;;
21326;SDS011;10822;51.532;6.770;2023-04-25T04:14:06;11.57;;;5.07;;
21326;SDS011;10822;51.532;6.770;2023-04-25T04:16:32;12.05;;;4.55;;
21326;SDS011;10822;51.532;6.770;2023-04-25T04:18:58;14.43;;;5.15;;
21326;SDS011;10822;51.532;6.770;2023-04-25T04:21:24;18.50;;;5.05;;
21326;SDS011;10822;51.532;6.770;2023-04-25T04:23:52;12.68;;;4.57;;
21326;SDS011;10822;51.532;6.770;2023-04-25T04:26:19;13.40;;;5.53;;
21326;SDS011;10822;51.532;6.770;2023-04-25T04:28:48;13.25;;;4.82;;
21326;SDS011;10822;51.532;6.770;2023-04-25T04:31:15;15.70;;;5.10;;
21326;SDS011;10822;51.532;6.770;2023-04-25T04:33:43;12.85;;;5.80;;
21326;SDS011;10822;51.532;6.770;2023-04-25T04:36:09;15.10;;;5.32;;
21326;SDS011;10822;51.532;6.770;2023-04-25T04:38:35;12.23;;;4.85;;
21326;SDS011;10822;51.532;6.770;2023-04-25T04:41:01;16.33;;;4.97;;
21326;SDS011;10822;51.532;6.770;2023-04-25T04:43:28;13.68;;;4.75;;
21326;SDS011;10822;51.532;6.770;2023-04-25T04:45:54;13.95;;;5.45;;
21326;SDS011;10822;51.532;6.770;2023-04-25T04:48:23;14.88;;;4.88;;
21326;SDS011;10822;51.532;6.770;2023-04-25T04:50:49;14.55;;;5.72;;
21326;SDS011;10822;51.532;6.770;2023-04-25T04:53:15;12.38;;;4.70;;
21326;SDS011;10822;51.532;6.770;2023-04-25T04:55:41;16.63;;;5.68;;
21326;SDS011;10822;51.532;6.770;2023-04-25T04:58:07;16.10;;;5.80;;
21326;SDS011;10822;51.532;6.770;2023-04-25T05:00:34;19.55;;;6.20;;
21326;SDS011;10822;51.532;6.770;2023-04-25T05:03:00;19.10;;;5.50;;
21326;SDS011;10822;51.532;6.770;2023-04-25T05:05:26;16.42;;;5.22;;
21326;SDS011;10822;51.532;6.770;2023-04-25T05:07:51;15.70;;;5.38;;
21326;SDS011;10822;51.532;6.770;2023-04-25T05:10:18;14.98;;;4.90;;
21326;SDS011;10822;51.532;6.770;2023-04-25T05:12:45;18.80;;;5.38;;
21326;SDS011;10822;51.532;6.770;2023-04-25T05:15:11;13.18;;;5.35;;
21326;SDS011;10822;51.532;6.770;2023-04-25T05:17:37;16.20;;;5.70;;
21326;SDS011;10822;51.532;6.770;2023-04-25T05:20:04;14.63;;;5.20;;
21326;SDS011;10822;51.532;6.770;2023-04-25T05:22:30;13.70;;;5.47;;
21326;SDS011;10822;51.532;6.770;2023-04-25T05:24:56;14.20;;;6.03;;
21326;SDS011;10822;51.532;6.770;2023-04-25T05:27:22;15.00;;;5.45;;
21326;SDS011;10822;51.532;6.770;2023-04-25T05:29:48;12.63;;;5.15;;
21326;SDS011;10822;51.532;6.770;2023-04-25T05:32:14;10.43;;;4.65;;
21326;SDS011;10822;51.532;6.770;2023-04-25T05:34:40;8.15;;;4.60;;
21326;SDS011;10822;51.532;6.770;2023-04-25T05:37:06;14.32;;;5.10;;
21326;SDS011;10822;51.532;6.770;2023-04-25T05:39:32;11.30;;;4.85;;
21326;SDS011;10822;51.532;6.770;2023-04-25T05:41:58;11.60;;;4.70;;
21326;SDS011;10822;51.532;6.770;2023-04-25T05:44:26;9.55;;;4.53;;
21326;SDS011;10822;51.532;6.770;2023-04-25T05:46:52;12.15;;;4.50;;
21326;SDS011;10822;51.532;6.770;2023-04-25T05:49:18;11.55;;;4.30;;
21326;SDS011;10822;51.532;6.770;2023-04-25T05:51:44;14.20;;;4.53;;
21326;SDS011;10822;51.532;6.770;2023-04-25T05:54:10;11.50;;;4.68;;
21326;SDS011;10822;51.532;6.770;2023-04-25T05:56:36;10.10;;;4.07;;
21326;SDS011;10822;51.532;6.770;2023-04-25T05:59:02;10.48;;;4.22;;
21326;SDS011;10822;51.532;6.770;2023-04-25T06:01:28;13.40;;;4.35;;
21326;SDS011;10822;51.532;6.770;2023-04-25T06:03:54;13.50;;;4.20;;
21326;SDS011;10822;51.532;6.770;2023-04-25T06:06:20;10.13;;;3.85;;
21326;SDS011;10822;51.532;6.770;2023-04-25T06:08:46;10.68;;;3.40;;
21326;SDS011;10822;51.532;6.770;2023-04-25T06:11:12;8.95;;;2.95;;
21326;SDS011;10822;51.532;6.770;2023-04-25T06:13:38;8.07;;;2.80;;
21326;SDS011;10822;51.532;6.770;2023-04-25T06:16:04;9.23;;;3.28;;
21326;SDS011;10822;51.532;6.770;2023-04-25T06:18:30;9.52;;;2.97;;
21326;SDS011;10822;51.532;6.770;2023-04-25T06:20:56;9.77;;;2.72;;
21326;SDS011;10822;51.532;6.770;2023-04-25T06:23:22;10.75;;;2.67;;
21326;SDS011;10822;51.532;6.770;2023-04-25T06:25:48;10.32;;;2.70;;
21326;SDS011;10822;51.532;6.770;2023-04-25T06:28:14;7.47;;;3.22;;
21326;SDS011;10822;51.532;6.770;2023-04-25T06:30:40;9.02;;;2.80;;
21326;SDS011;10822;51.532;6.770;2023-04-25T06:33:06;13.32;;;3.55;;
21326;SDS011;10822;51.532;6.770;2023-04-25T06:35:33;11.30;;;2.97;;
21326;SDS011;10822;51.532;6.770;2023-04-25T06:37:59;8.05;;;2.97;;
21326;SDS011;10822;51.532;6.770;2023-04-25T06:40:25;7.80;;;2.97;;
21326;SDS011;10822;51.532;6.770;2023-04-25T06:42:51;9.70;;;3.13;;
21326;SDS011;10822;51.532;6.770;2023-04-25T06:45:17;13.30;;;3.38;;
21326;SDS011;10822;51.532;6.770;2023-04-25T06:47:43;8.35;;;3.60;;
21326;SDS011;10822;51.532;6.770;2023-04-25T06:50:09;6.55;;;3.17;;
21326;SDS011;10822;51.532;6.770;2023-04-25T06:52:35;8.90;;;3.40;;
21326;SDS011;10822;51.532;6.770;2023-04-25T06:55:01;8.25;;;2.95;;
21326;SDS011;10822;51.532;6.770;2023-04-25T06:57:28;10.07;;;3.60;;
21326;SDS011;10822;51.532;6.770;2023-04-25T06:59:54;11.13;;;3.40;;
21326;SDS011;10822;51.532;6.770;2023-04-25T07:02:20;6.72;;;3.17;;
21326;SDS011;10822;51.532;6.770;2023-04-25T07:04:47;10.25;;;3.22;;
21326;SDS011;10822;51.532;6.770;2023-04-25T07:07:13;9.00;;;3.50;;
21326;SDS011;10822;51.532;6.770;2023-04-25T07:09:39;12.90;;;3.72;;
21326;SDS011;10822;51.532;6.770;2023-04-25T07:12:05;10.05;;;3.33;;
21326;SDS011;10822;51.532;6.770;2023-04-25T07:14:31;10.25;;;3.40;;
21326;SDS011;10822;51.532;6.770;2023-04-25T07:16:57;10.45;;;3.28;;
21326;SDS011;10822;51.532;6.770;2023-04-25T07:19:23;9.77;;;3.30;;
21326;SDS011;10822;51.532;6.770;2023-04-25T07:21:51;8.07;;;2.97;;
21326;SDS011;10822;51.532;6.770;2023-04-25T07:24:17;8.10;;;3.10;;
21326;SDS011;10822;51.532;6.770;2023-04-25T07:26:43;9.60;;;2.92;;
21326;SDS011;10822;51.532;6.770;2023-04-25T07:29:09;7.63;;;2.95;;
21326;SDS011;10822;51.532;6.770;2023-04-25T07:31:35;7.78;;;2.80;;
21326;SDS011;10822;51.532;6.770;2023-04-25T07:34:01;8.82;;;2.55;;
21326;SDS011;10822;51.532;6.770;2023-04-25T07:36:27;9.77;;;3.10;;
21326;SDS011;10822;51.532;6.770;2023-04-25T07:38:53;5.05;;;2.42;;
21326;SDS011;10822;51.532;6.770;2023-04-25T07:41:19;6.22;;;2.47;;
21326;SDS011;10822;51.532;6.770;2023-04-25T07:43:45;5.45;;;2.50;;
21326;SDS011;10822;51.532;6.770;2023-04-25T07:46:11;6.55;;;2.00;;
21326;SDS011;10822;51.532;6.770;2023-04-25T07:48:37;7.03;;;2.33;;
21326;SDS011;10822;51.532;6.770;2023-04-25T07:51:03;10.60;;;2.55;;
21326;SDS011;10822;51.532;6.770;2023-04-25T07:53:30;7.78;;;2.38;;
21326;SDS011;10822;51.532;6.770;2023-04-25T07:55:57;6.95;;;2.17;;
21326;SDS011;10822;51.532;6.770;2023-04-25T07:58:23;10.45;;;2.88;;
21326;SDS011;10822;51.532;6.770;2023-04-25T08:00:49;10.73;;;2.45;;
21326;SDS011;10822;51.532;6.770;2023-04-25T08:03:15;8.68;;;2.20;;
21326;SDS011;10822;51.532;6.770;2023-04-25T08:05:41;9.75;;;2.17;;
21326;SDS011;10822;51.532;6.770;2023-04-25T08:08:07;5.30;;;1.80;;
21326;SDS011;10822;51.532;6.770;2023-04-25T08:10:33;5.20;;;1.75;;
21326;SDS011;10822;51.532;6.770;2023-04-25T08:12:59;7.45;;;2.28;;
21326;SDS011;10822;51.532;6.770;2023-04-25T08:15:25;6.07;;;1.60;;
21326;SDS011;10822;51.532;6.770;2023-04-25T08:17:51;6.50;;;1.90;;
21326;SDS011;10822;51.532;6.770;2023-04-25T08:20:17;6.00;;;1.40;;
21326;SDS011;10822;51.532;6.770;2023-04-25T08:22:43;4.53;;;1.60;;
21326;SDS011;10822;51.532;6.770;2023-04-25T08:25:09;9.43;;;1.95;;
21326;SDS011;10822;51.532;6.770;2023-04-25T08:27:35;5.43;;;1.40;;
21326;SDS011;10822;51.532;6.770;2023-04-25T08:30:02;6.53;;;1.52;;
21326;SDS011;10822;51.532;6.770;2023-04-25T08:32:28;11.27;;;2.00;;
21326;SDS011;10822;51.532;6.770;2023-04-25T08:34:54;8.82;;;2.10;;
21326;SDS011;10822;51.532;6.770;2023-04-25T08:37:20;8.05;;;2.05;;
21326;SDS011;10822;51.532;6.770;2023-04-25T08:39:46;7.45;;;1.80;;
21326;SDS011;10822;51.532;6.770;2023-04-25T08:42:17;5.15;;;1.75;;
21326;SDS011;10822;51.532;6.770;2023-04-25T08:44:44;9.43;;;2.08;;
21326;SDS011;10822;51.532;6.770;2023-04-25T08:47:11;9.65;;;2.20;;
21326;SDS011;10822;51.532;6.770;2023-04-25T08:49:37;6.15;;;1.50;;
21326;SDS011;10822;51.532;6.770;2023-04-25T08:52:04;6.90;;;1.63;;
21326;SDS011;10822;51.532;6.770;2023-04-25T08:54:31;6.47;;;1.55;;
21326;SDS011;10822;51.532;6.770;2023-04-25T08:57:00;7.70;;;1.92;;
21326;SDS011;10822;51.532;6.770;2023-04-25T08:59:30;6.10;;;1.67;;
21326;SDS011;10822;51.532;6.770;2023-04-25T09:01:56;6.13;;;1.70;;
21326;SDS011;10822;51.532;6.770;2023-04-25T09:04:22;10.20;;;1.75;;
21326;SDS011;10822;51.532;6.770;2023-04-25T09:06:48;5.95;;;1.27;;
21326;SDS011;10822;51.532;6.770;2023-04-25T09:09:14;5.70;;;1.25;;
21326;SDS011;10822;51.532;6.770;2023-04-25T09:11:40;4.95;;;1.48;;
21326;SDS011;10822;51.532;6.770;2023-04-25T09:14:24;5.32;;;1.10;;
21326;SDS011;10822;51.532;6.770;2023-04-25T09:19:25;4.93;;;1.58;;
21326;SDS011;10822;51.532;6.770;2023-04-25T09:21:55;5.68;;;1.10;;
21326;SDS011;10822;51.532;6.770;2023-04-25T09:24:32;18.63;;;1.52;;
21326;SDS011;10822;51.532;6.770;2023-04-25T09:26:58;4.95;;;1.20;;
21326;SDS011;10822;51.532;6.770;2023-04-25T09:29:30;105.93;;;8.20;;
21326;SDS011;10822;51.532;6.770;2023-04-25T09:32:10;6.20;;;1.30;;
21326;SDS011;10822;51.532;6.770;2023-04-25T09:34:40;6.00;;;1.50;;
21326;SDS011;10822;51.532;6.770;2023-04-25T09:37:07;14.38;;;1.92;;
21326;SDS011;10822;51.532;6.770;2023-04-25T09:39:33;7.07;;;1.38;;
21326;SDS011;10822;51.532;6.770;2023-04-25T09:41:59;4.72;;;1.23;;
21326;SDS011;10822;51.532;6.770;2023-04-25T09:44:25;5.05;;;1.10;;
21326;SDS011;10822;51.532;6.770;2023-04-25T09:46:52;5.22;;;1.05;;
21326;SDS011;10822;51.532;6.770;2023-04-25T09:49:19;8.88;;;1.90;;
21326;SDS011;10822;51.532;6.770;2023-04-25T09:51:55;6.63;;;1.38;;
21326;SDS011;10822;51.532;6.770;2023-04-25T09:54:22;6.40;;;1.50;;
21326;SDS011;10822;51.532;6.770;2023-04-25T09:56:48;5.22;;;1.42;;
21326;SDS011;10822;51.532;6.770;2023-04-25T09:59:18;25.50;;;2.00;;
21326;SDS011;10822;51.532;6.770;2023-04-25T10:01:45;3.58;;;1.40;;
21326;SDS011;10822;51.532;6.770;2023-04-25T10:04:12;3.15;;;1.30;;
21326;SDS011;10822;51.532;6.770;2023-04-25T10:06:38;6.43;;;1.45;;
21326;SDS011;10822;51.532;6.770;2023-04-25T10:09:07;17.42;;;2.28;;
21326;SDS011;10822;51.532;6.770;2023-04-25T10:11:33;40.22;;;4.07;;
21326;SDS011;10822;51.532;6.770;2023-04-25T10:14:00;3.92;;;1.13;;
21326;SDS011;10822;51.532;6.770;2023-04-25T10:16:27;17.65;;;2.55;;
21326;SDS011;10822;51.532;6.770;2023-04-25T10:18:53;6.75;;;2.92;;
21326;SDS011;10822;51.532;6.770;2023-04-25T10:21:20;6.75;;;1.67;;
21326;SDS011;10822;51.532;6.770;2023-04-25T10:23:47;11.43;;;2.58;;
21326;SDS011;10822;51.532;6.770;2023-04-25T10:26:14;4.45;;;1.30;;
21326;SDS011;10822;51.532;6.770;2023-04-25T10:28:58;5.50;;;0.80;;
21326;SDS011;10822;51.532;6.770;2023-04-25T10:31:24;4.40;;;1.20;;
21326;SDS011;10822;51.532;6.770;2023-04-25T10:33:50;3.78;;;1.42;;
21326;SDS011;10822;51.532;6.770;2023-04-25T10:36:22;3.95;;;1.05;;
21326;SDS011;10822;51.532;6.770;2023-04-25T10:38:49;6.50;;;1.48;;
21326;SDS011;10822;51.532;6.770;2023-04-25T10:41:17;1.88;;;0.80;;
21326;SDS011;10822;51.532;6.770;2023-04-25T10:43:43;5.50;;;1.67;;
21326;SDS011;10822;51.532;6.770;2023-04-25T10:49:01;4.63;;;1.08;;
21326;SDS011;10822;51.532;6.770;2023-04-25T10:51:34;5.43;;;1.33;;
21326;SDS011;10822;51.532;6.770;2023-04-25T10:54:01;3.60;;;1.17;;
21326;SDS011;10822;51.532;6.770;2023-04-25T10:56:28;4.75;;;1.40;;
21326;SDS011;10822;51.532;6.770;2023-04-25T10:59:10;3.55;;;1.00;;
21326;SDS011;10822;51.532;6.770;2023-04-25T11:04:05;6.05;;;1.58;;
21326;SDS011;10822;51.532;6.770;2023-04-25T11:06:37;2.60;;;1.10;;
21326;SDS011;10822;51.532;6.770;2023-04-25T11:09:09;8.70;;;3.13;;
21326;SDS011;10822;51.532;6.770;2023-04-25T11:11:38;4.93;;;1.52;;
21326;SDS011;10822;51.532;6.770;2023-04-25T11:14:04;5.65;;;1.30;;
21326;SDS011;10822;51.532;6.770;2023-04-25T11:16:30;3.65;;;1.17;;
21326;SDS011;10822;51.532;6.770;2023-04-25T11:18:57;2.70;;;1.08;;
21326;SDS011;10822;51.532;6.770;2023-04-25T11:21:23;1.92;;;1.10;;
21326;SDS011;10822;51.532;6.770;2023-04-25T11:23:51;4.07;;;1.30;;
21326;SDS011;10822;51.532;6.770;2023-04-25T11:26:18;3.33;;;1.20;;
21326;SDS011;10822;51.532;6.770;2023-04-25T11:28:45;6.63;;;1.48;;
21326;SDS011;10822;51.532;6.770;2023-04-25T11:31:12;7.68;;;2.60;;
21326;SDS011;10822;51.532;6.770;2023-04-25T11:33:38;5.15;;;1.70;;
21326;SDS011;10822;51.532;6.770;2023-04-25T11:36:05;7.05;;;1.60;;
21326;SDS011;10822;51.532;6.770;2023-04-25T11:38:32;3.72;;;1.30;;
21326;SDS011;10822;51.532;6.770;2023-04-25T11:40:58;4.25;;;1.30;;
21326;SDS011;10822;51.532;6.770;2023-04-25T11:43:25;4.15;;;1.50;;
21326;SDS011;10822;51.532;6.770;2023-04-25T11:45:51;4.72;;;1.30;;
21326;SDS011;10822;51.532;6.770;2023-04-25T11:48:20;4.05;;;1.05;;
21326;SDS011;10822;51.532;6.770;2023-04-25T11:50:46;4.15;;;1.75;;
21326;SDS011;10822;51.532;6.770;2023-04-25T11:53:12;4.57;;;1.50;;
21326;SDS011;10822;51.532;6.770;2023-04-25T11:55:38;6.75;;;1.40;;
21326;SDS011;10822;51.532;6.770;2023-04-25T11:58:05;8.27;;;1.48;;
21326;SDS011;10822;51.532;6.770;2023-04-25T12:00:31;6.47;;;1.42;;
21326;SDS011;10822;51.532;6.770;2023-04-25T12:02:57;5.85;;;1.90;;
21326;SDS011;10822;51.532;6.770;2023-04-25T12:05:24;4.93;;;1.60;;
21326;SDS011;10822;51.532;6.770;2023-04-25T12:07:50;5.22;;;1.55;;
21326;SDS011;10822;51.532;6.770;2023-04-25T12:10:17;4.93;;;1.40;;
21326;SDS011;10822;51.532;6.770;2023-04-25T12:12:44;3.80;;;1.17;;
21326;SDS011;10822;51.532;6.770;2023-04-25T12:17:44;3.60;;;1.00;;
21326;SDS011;10822;51.532;6.770;2023-04-25T12:20:21;2.78;;;1.02;;
21326;SDS011;10822;51.532;6.770;2023-04-25T12:22:49;3.95;;;1.02;;
21326;SDS011;10822;51.532;6.770;2023-04-25T12:25:34;3.58;;;1.00;;
21326;SDS011;10822;51.532;6.770;2023-04-25T12:30:52;2.60;;;1.00;;
21326;SDS011;10822;51.532;6.770;2023-04-25T12:33:18;3.25;;;1.08;;
21326;SDS011;10822;51.532;6.770;2023-04-25T12:35:44;3.20;;;1.00;;
21326;SDS011;10822;51.532;6.770;2023-04-25T12:38:10;3.03;;;1.23;;
21326;SDS011;10822;51.532;6.770;2023-04-25T12:40:36;5.25;;;1.15;;
21326;SDS011;10822;51.532;6.770;2023-04-25T12:43:02;2.97;;;0.88;;
21326;SDS011;10822;51.532;6.770;2023-04-25T12:45:28;5.47;;;0.85;;
21326;SDS011;10822;51.532;6.770;2023-04-25T12:47:54;3.70;;;1.20;;
21326;SDS011;10822;51.532;6.770;2023-04-25T12:50:20;3.58;;;1.00;;
21326;SDS011;10822;51.532;6.770;2023-04-25T12:52:46;1.80;;;0.68;;
21326;SDS011;10822;51.532;6.770;2023-04-25T12:55:12;2.83;;;1.40;;
21326;SDS011;10822;51.532;6.770;2023-04-25T12:57:38;4.47;;;1.10;;
21326;SDS011;10822;51.532;6.770;2023-04-25T13:00:04;3.10;;;0.82;;
21326;SDS011;10822;51.532;6.770;2023-04-25T13:02:32;2.70;;;0.90;;
21326;SDS011;10822;51.532;6.770;2023-04-25T13:04:58;3.08;;;1.10;;
21326;SDS011;10822;51.532;6.770;2023-04-25T13:07:24;1.52;;;0.95;;
21326;SDS011;10822;51.532;6.770;2023-04-25T13:09:50;4.97;;;2.35;;
21326;SDS011;10822;51.532;6.770;2023-04-25T13:12:16;3.72;;;1.08;;
21326;SDS011;10822;51.532;6.770;2023-04-25T13:14:42;3.60;;;1.13;;
21326;SDS011;10822;51.532;6.770;2023-04-25T13:17:08;2.97;;;1.23;;
21326;SDS011;10822;51.532;6.770;2023-04-25T13:19:35;2.95;;;0.93;;
21326;SDS011;10822;51.532;6.770;2023-04-25T13:22:01;3.67;;;0.90;;
21326;SDS011;10822;51.532;6.770;2023-04-25T13:24:29;4.05;;;1.20;;
21326;SDS011;10822;51.532;6.770;2023-04-25T13:26:55;2.20;;;0.77;;
21326;SDS011;10822;51.532;6.770;2023-04-25T13:29:21;3.53;;;1.15;;
21326;SDS011;10822;51.532;6.770;2023-04-25T13:31:46;3.88;;;0.98;;
21326;SDS011;10822;51.532;6.770;2023-04-25T13:34:12;2.50;;;0.63;;
21326;SDS011;10822;51.532;6.770;2023-04-25T13:36:38;4.03;;;1.05;;
21326;SDS011;10822;51.532;6.770;2023-04-25T13:39:05;3.35;;;1.05;;
21326;SDS011;10822;51.532;6.770;2023-04-25T13:41:31;2.70;;;1.00;;
21326;SDS011;10822;51.532;6.770;2023-04-25T13:43:57;3.53;;;0.90;;
21326;SDS011;10822;51.532;6.770;2023-04-25T13:46:23;2.10;;;0.90;;
21326;SDS011;10822;51.532;6.770;2023-04-25T13:48:49;2.40;;;0.65;;
21326;SDS011;10822;51.532;6.770;2023-04-25T13:51:15;4.68;;;0.90;;
21326;SDS011;10822;51.532;6.770;2023-04-25T13:53:42;2.20;;;0.82;;
21326;SDS011;10822;51.532;6.770;2023-04-25T13:56:08;3.65;;;0.85;;
21326;SDS011;10822;51.532;6.770;2023-04-25T13:58:34;2.17;;;0.77;;
21326;SDS011;10822;51.532;6.770;2023-04-25T14:01:00;4.05;;;1.25;;
21326;SDS011;10822;51.532;6.770;2023-04-25T14:03:26;4.20;;;0.85;;
21326;SDS011;10822;51.532;6.770;2023-04-25T14:05:52;3.00;;;0.80;;
21326;SDS011;10822;51.532;6.770;2023-04-25T14:08:18;1.95;;;0.80;;
21326;SDS011;10822;51.532;6.770;2023-04-25T14:10:45;3.67;;;0.85;;
21326;SDS011;10822;51.532;6.770;2023-04-25T14:13:10;1.75;;;0.60;;
21326;SDS011;10822;51.532;6.770;2023-04-25T14:15:36;1.50;;;0.90;;
21326;SDS011;10822;51.532;6.770;2023-04-25T14:18:02;2.28;;;0.73;;
21326;SDS011;10822;51.532;6.770;2023-04-25T14:20:29;2.63;;;0.85;;
21326;SDS011;10822;51.532;6.770;2023-04-25T14:22:55;4.00;;;0.90;;
21326;SDS011;10822;51.532;6.770;2023-04-25T14:25:23;2.63;;;0.70;;
21326;SDS011;10822;51.532;6.770;2023-04-25T14:27:49;2.47;;;0.70;;
21326;SDS011;10822;51.532;6.770;2023-04-25T14:30:16;2.78;;;0.77;;
21326;SDS011;10822;51.532;6.770;2023-04-25T14:32:43;3.88;;;1.00;;
21326;SDS011;10822;51.532;6.770;2023-04-25T14:35:10;2.33;;;1.08;;
21326;SDS011;10822;51.532;6.770;2023-04-25T14:37:36;3.47;;;0.82;;
21326;SDS011;10822;51.532;6.770;2023-04-25T14:40:02;4.00;;;1.13;;
21326;SDS011;10822;51.532;6.770;2023-04-25T14:42:29;4.78;;;1.05;;
21326;SDS011;10822;51.532;6.770;2023-04-25T14:44:56;3.03;;;0.80;;
21326;SDS011;10822;51.532;6.770;2023-04-25T14:47:22;4.82;;;1.25;;
21326;SDS011;10822;51.532;6.770;2023-04-25T14:49:48;3.10;;;1.17;;
21326;SDS011;10822;51.532;6.770;2023-04-25T14:52:19;2.72;;;0.68;;